createdAt,value
2023-03-11T01:21:27.309Z,99.99
2023-03-11T01:22:25.848Z,99.99
2023-03-11T01:23:26.741Z,99.99
2023-03-11T01:24:26.711Z,99.99
2023-03-11T01:25:25.979Z,99.99
2023-03-11T01:26:28.803Z,99.99
2023-03-11T01:27:26.629Z,99.99
2023-03-11T01:28:28.112Z,99.99
2023-03-11T01:29:30.153Z,99.99
2023-03-11T01:30:27.104Z,99.99
2023-03-11T01:31:27.242Z,99.99
2023-03-11T01:32:27.181Z,99.99
2023-03-11T01:33:27.686Z,99.99
2023-03-11T01:34:27.632Z,99.99
2023-03-11T01:35:29.091Z,99.99
2023-03-11T01:36:32.329Z,99.99
2023-03-11T01:37:29.787Z,99.99
2023-03-11T01:38:30.652Z,99.99
2023-03-11T01:39:29.933Z,99.99
2023-03-11T01:40:38.894Z,99.99
2023-03-11T01:41:34.344Z,99.99
2023-03-11T01:42:30.537Z,99.99
2023-03-11T01:43:31.836Z,99.99
2023-03-11T01:44:31.179Z,99.99
2023-03-11T01:45:34.108Z,99.99
2023-03-11T01:46:35.900Z,99.99
2023-03-11T01:48:50.437Z,99.99
2023-03-11T01:49:33.377Z,99.99
2023-03-11T01:50:33.479Z,99.99
2023-03-11T01:51:34.151Z,99.99
2023-03-11T01:52:34.265Z,99.99
2023-03-11T01:53:34.309Z,99.99
2023-03-11T01:54:37.980Z,99.99
2023-03-11T01:55:37.316Z,99.99
2023-03-11T01:56:36.645Z,99.99
2023-03-11T01:57:34.743Z,99.99
2023-03-11T01:58:36.111Z,99.99
2023-03-11T01:59:35.499Z,99.99
2023-03-11T02:00:35.544Z,99.99
2023-03-11T02:01:37.924Z,99.99
2023-03-11T02:02:35.970Z,99.99
2023-03-11T02:03:35.874Z,99.99
2023-03-11T02:04:40.089Z,99.99
2023-03-11T02:05:38.308Z,99.99
2023-03-11T02:06:40.359Z,99.99
2023-03-11T02:07:36.588Z,99.99
2023-03-11T02:08:36.832Z,99.99
2023-03-11T02:09:36.796Z,99.99
2023-03-11T02:10:38.728Z,99.99
2023-03-11T02:11:38.111Z,99.99
2023-03-11T02:12:38.534Z,99.99
2023-03-11T02:13:38.915Z,99.99
2023-03-11T02:14:38.476Z,99.99
2023-03-11T02:15:40.150Z,99.99
2023-03-11T02:16:40.670Z,99.99
2023-03-11T02:17:39.240Z,99.99
2023-03-11T02:18:40.700Z,99.99
2023-03-11T02:19:42.916Z,99.99
2023-03-11T02:20:40.029Z,99.99
2023-03-11T02:21:40.929Z,99.99
2023-03-11T02:22:41.402Z,99.99
2023-03-11T02:23:41.972Z,99.99
2023-03-11T02:24:40.419Z,99.99
2023-03-11T02:25:42.260Z,99.99
2023-03-11T02:26:42.125Z,99.99
2023-03-11T02:27:41.250Z,99.99
2023-03-11T02:28:42.467Z,99.99
2023-03-11T02:29:44.367Z,99.99
2023-03-11T02:30:42.098Z,99.99
2023-03-11T02:31:43.222Z,99.99
2023-03-11T02:32:42.376Z,99.99
2023-03-11T02:33:44.531Z,99.99
2023-03-11T02:34:42.804Z,99.99
2023-03-11T02:35:47.421Z,99.99
2023-03-11T02:36:45.723Z,99.99
2023-03-11T02:37:43.061Z,99.99
2023-03-11T02:38:47.227Z,99.99
2023-03-11T02:39:43.925Z,99.99
2023-03-11T02:40:45.001Z,99.99
2023-03-11T02:41:43.600Z,99.99
2023-03-11T02:42:45.382Z,99.99
2023-03-11T02:43:44.069Z,99.99
2023-03-11T02:44:44.265Z,99.99
2023-03-11T02:45:45.318Z,99.99
2023-03-11T02:46:45.996Z,99.99
2023-03-11T02:47:45.144Z,99.99
2023-03-11T02:48:45.113Z,99.99
2023-03-11T02:49:45.028Z,99.99
2023-03-11T02:50:45.088Z,99.99
2023-03-11T02:51:45.402Z,99.99
2023-03-11T02:52:46.351Z,99.99
2023-03-11T02:53:46.227Z,99.99
2023-03-11T02:54:47.625Z,99.99
2023-03-11T02:55:47.792Z,99.99
2023-03-11T02:56:49.000Z,99.99
2023-03-11T02:57:46.810Z,99.99
2023-03-11T02:58:47.097Z,99.99
2023-03-11T02:59:47.471Z,99.99
2023-03-11T03:00:48.042Z,99.99
2023-03-11T03:01:49.573Z,99.99
2023-03-11T03:02:48.790Z,99.99
2023-03-11T03:03:49.590Z,99.99
2023-03-11T03:04:49.226Z,99.99
2023-03-11T03:05:50.107Z,99.99
2023-03-11T03:06:51.105Z,99.99
2023-03-11T03:07:49.160Z,99.99
2023-03-11T03:08:49.720Z,99.99
2023-03-11T03:09:50.414Z,99.99
2023-03-11T03:10:52.195Z,99.99
2023-03-11T03:11:49.857Z,99.99
2023-03-11T03:12:51.690Z,99.99
2023-03-11T03:13:50.561Z,99.99
2023-03-11T03:14:51.872Z,99.99
2023-03-11T03:15:52.235Z,99.99
2023-03-11T03:16:52.492Z,99.99
2023-03-11T03:17:54.486Z,99.99
2023-03-11T03:18:51.781Z,99.99
2023-03-11T03:19:52.484Z,99.99
2023-03-11T03:20:52.664Z,99.99
2023-03-11T03:21:52.968Z,99.99
2023-03-11T03:22:53.205Z,99.99
2023-03-11T03:23:53.004Z,99.99
2023-03-11T03:24:53.276Z,99.99
2023-03-11T03:25:53.525Z,99.99
2023-03-11T03:26:58.341Z,99.99
2023-03-11T03:27:56.679Z,99.99
2023-03-11T03:28:55.304Z,99.99
2023-03-11T03:29:59.322Z,99.99
2023-03-11T03:30:56.046Z,99.99
2023-03-11T03:31:58.960Z,99.99
2023-03-11T03:32:54.959Z,99.99
2023-03-11T03:33:55.728Z,99.99
2023-03-11T03:34:57.648Z,99.99
2023-03-11T03:36:00.587Z,99.99
2023-03-11T03:36:57.681Z,99.99
2023-03-11T03:38:03.500Z,99.99
2023-03-11T03:38:57.119Z,99.99
2023-03-11T03:39:56.993Z,99.99
2023-03-11T03:41:04.113Z,99.99
2023-03-11T03:41:57.923Z,99.99
2023-03-11T03:42:58.759Z,99.99
2023-03-11T03:43:57.790Z,99.99
2023-03-11T03:45:00.097Z,99.99
2023-03-11T03:45:59.919Z,99.99
2023-03-11T03:47:00.775Z,99.99
2023-03-11T03:48:00.990Z,99.99
2023-03-11T03:48:59.422Z,99.99
2023-03-11T03:50:00.037Z,99.99
2023-03-11T03:50:59.601Z,99.99
2023-03-11T03:52:00.281Z,99.99
2023-03-11T03:52:59.506Z,99.99
2023-03-11T03:54:00.828Z,99.99
2023-03-11T03:55:00.933Z,99.99
2023-03-11T03:56:02.053Z,99.99
2023-03-11T03:57:05.142Z,99.99
2023-03-11T03:58:02.144Z,99.99
2023-03-11T03:59:02.465Z,99.99
2023-03-11T04:00:02.989Z,99.99
2023-03-11T04:01:01.918Z,99.99
2023-03-11T04:02:01.578Z,99.99
2023-03-11T04:03:03.892Z,99.99
2023-03-11T04:04:02.153Z,99.99
2023-03-11T04:05:03.369Z,99.99
2023-03-11T04:06:04.546Z,99.99
2023-03-11T04:07:03.644Z,99.99
2023-03-11T04:08:04.336Z,99.99
2023-03-11T04:09:03.145Z,99.99
2023-03-11T04:10:05.106Z,99.99
2023-03-11T04:11:04.078Z,99.99
2023-03-11T04:12:05.142Z,99.99
2023-03-11T04:13:04.979Z,99.99
2023-03-11T04:14:06.509Z,99.99
2023-03-11T04:15:06.047Z,99.99
2023-03-11T04:16:06.008Z,99.99
2023-03-11T04:17:05.752Z,99.99
2023-03-11T04:18:05.129Z,99.99
2023-03-11T04:19:05.972Z,99.99
2023-03-11T04:20:06.930Z,99.99
2023-03-11T04:21:07.284Z,99.99
2023-03-11T04:22:07.380Z,99.99
2023-03-11T04:23:07.835Z,99.99
2023-03-11T04:24:07.412Z,99.99
2023-03-11T04:25:07.321Z,99.99
2023-03-11T04:26:07.991Z,99.99
2023-03-11T04:27:07.418Z,99.99
2023-03-11T04:28:08.970Z,99.99
2023-03-11T04:29:08.783Z,99.99
2023-03-11T04:30:09.218Z,99.99
2023-03-11T04:31:09.593Z,99.99
2023-03-11T04:32:09.711Z,99.99
2023-03-11T04:33:09.484Z,99.99
2023-03-11T04:34:10.367Z,99.99
2023-03-11T04:35:11.260Z,99.99
2023-03-11T04:36:11.928Z,99.99
2023-03-11T04:37:10.697Z,99.99
2023-03-11T04:38:10.902Z,99.99
2023-03-11T04:39:11.444Z,99.99
2023-03-11T04:40:11.592Z,99.99
2023-03-11T04:41:14.197Z,99.99
2023-03-11T04:42:11.711Z,99.99
2023-03-11T04:43:11.840Z,99.99
2023-03-11T04:44:12.763Z,99.99
2023-03-11T04:45:11.674Z,99.99
2023-03-11T04:46:11.899Z,99.99
2023-03-11T04:47:11.538Z,99.99
2023-03-11T04:48:11.560Z,99.99
2023-03-11T04:49:11.721Z,99.99
2023-03-11T04:50:12.392Z,99.99
2023-03-11T04:51:12.296Z,99.99
2023-03-11T04:52:12.350Z,99.99
2023-03-11T04:53:13.384Z,99.99
2023-03-11T04:54:12.334Z,99.99
2023-03-11T04:55:14.073Z,99.99
2023-03-11T04:56:14.894Z,99.99
2023-03-11T04:57:14.217Z,99.99
2023-03-11T04:58:13.363Z,99.99
2023-03-11T04:59:14.425Z,99.99
2023-03-11T05:00:13.991Z,99.99
2023-03-11T05:01:14.562Z,99.99
2023-03-11T05:02:14.464Z,99.99
2023-03-11T05:03:14.981Z,99.99
2023-03-11T05:04:14.160Z,99.99
2023-03-11T05:05:14.438Z,99.99
2023-03-11T05:07:15.796Z,99.99
2023-03-11T05:08:16.545Z,99.99
2023-03-11T05:09:15.334Z,99.99
2023-03-11T05:10:16.917Z,99.99
2023-03-11T05:11:15.819Z,99.99
2023-03-11T05:12:16.298Z,99.99
2023-03-11T05:13:15.933Z,99.99
2023-03-11T05:14:17.619Z,99.99
2023-03-11T05:15:17.446Z,99.99
2023-03-11T05:16:19.669Z,99.99
2023-03-11T05:17:16.881Z,99.99
2023-03-11T05:18:17.436Z,99.99
2023-03-11T05:19:17.887Z,99.99
2023-03-11T05:20:19.488Z,99.99
2023-03-11T05:21:18.491Z,99.99
2023-03-11T05:22:18.001Z,99.99
2023-03-11T05:23:17.995Z,99.99
2023-03-11T05:24:18.939Z,99.99
2023-03-11T05:25:18.739Z,99.99
2023-03-11T05:26:21.008Z,99.99
2023-03-11T05:27:18.706Z,99.99
2023-03-11T05:28:19.200Z,99.99
2023-03-11T05:29:20.184Z,99.99
2023-03-11T05:30:19.517Z,99.99
2023-03-11T05:31:21.513Z,99.99
2023-03-11T05:32:20.021Z,99.99
2023-03-11T05:33:20.225Z,99.99
2023-03-11T05:34:20.307Z,99.99
2023-03-11T05:35:21.102Z,99.99
2023-03-11T05:36:32.485Z,99.99
2023-03-11T05:37:21.960Z,99.99
2023-03-11T05:38:22.082Z,99.99
2023-03-11T05:39:22.324Z,99.99
2023-03-11T05:40:22.064Z,99.99
2023-03-11T05:41:21.733Z,99.99
2023-03-11T05:42:22.466Z,99.99
2023-03-11T05:43:22.343Z,99.99
2023-03-11T05:44:23.927Z,99.99
2023-03-11T05:45:23.670Z,99.99
2023-03-11T05:46:26.782Z,99.99
2023-03-11T05:47:23.669Z,99.99
2023-03-11T05:48:25.187Z,99.99
2023-03-11T05:49:24.826Z,99.99
2023-03-11T05:50:24.357Z,99.99
2023-03-11T05:51:24.121Z,99.99
2023-03-11T05:52:25.358Z,99.99
2023-03-11T05:53:25.898Z,99.99
2023-03-11T05:54:24.395Z,99.99
2023-03-11T05:55:26.692Z,99.99
2023-03-11T05:56:27.525Z,99.99
2023-03-11T05:57:25.045Z,99.99
2023-03-11T05:58:26.201Z,99.99
2023-03-11T05:59:25.438Z,99.99
2023-03-11T06:00:25.570Z,99.99
2023-03-11T06:01:26.074Z,99.99
2023-03-11T06:02:26.461Z,99.99
2023-03-11T06:03:26.387Z,99.99
2023-03-11T06:04:26.956Z,99.99
2023-03-11T06:05:26.512Z,99.99
2023-03-11T06:06:29.412Z,99.99
2023-03-11T06:07:26.435Z,99.99
2023-03-11T06:08:27.971Z,99.99
2023-03-11T06:09:27.039Z,99.99
2023-03-11T06:10:27.896Z,99.99
2023-03-11T06:11:27.107Z,99.99
2023-03-11T06:12:28.138Z,99.99
2023-03-11T06:13:27.121Z,99.99
2023-03-11T06:14:28.582Z,99.99
2023-03-11T06:15:28.140Z,99.99
2023-03-11T06:16:31.801Z,99.99
2023-03-11T06:17:29.985Z,99.99
2023-03-11T06:18:28.347Z,99.99
2023-03-11T06:19:30.007Z,99.99
2023-03-11T06:20:29.972Z,99.99
2023-03-11T06:21:30.832Z,99.88
2023-03-11T06:22:29.979Z,99.46
2023-03-11T06:23:33.421Z,99.99
2023-03-11T06:24:30.948Z,99.99
2023-03-11T06:25:30.986Z,99.99
2023-03-11T06:26:33.464Z,99.98
2023-03-11T06:27:30.893Z,99.99
2023-03-11T06:28:31.515Z,99.99
2023-03-11T06:29:31.825Z,99.99
2023-03-11T06:30:33.521Z,99.99
2023-03-11T06:31:34.346Z,99.99
2023-03-11T06:32:33.482Z,99.99
2023-03-11T06:33:32.167Z,99.66
2023-03-11T06:34:34.520Z,99.66
2023-03-11T06:35:34.293Z,99.88
2023-03-11T06:36:40.156Z,99.99
2023-03-11T06:37:35.725Z,99.99
2023-03-11T06:38:35.661Z,99.98
2023-03-11T06:39:34.738Z,99.99
2023-03-11T06:40:34.894Z,99.73
2023-03-11T06:41:36.624Z,99.31
2023-03-11T06:42:35.191Z,99.93
2023-03-11T06:43:35.069Z,99.83
2023-03-11T06:44:35.307Z,99.52
2023-03-11T06:45:35.640Z,99.62
2023-03-11T06:46:38.235Z,99.83
2023-03-11T06:47:37.199Z,99.93
2023-03-11T06:48:35.379Z,99.99
2023-03-11T06:49:35.474Z,99.41
2023-03-11T06:50:35.799Z,98.89
2023-03-11T06:51:36.380Z,98.05
2023-03-11T06:52:35.673Z,98.16
2023-03-11T06:53:36.783Z,97.95
2023-03-11T06:54:36.556Z,98.26
2023-03-11T06:55:38.224Z,98.47
2023-03-11T06:56:39.241Z,98.58
2023-03-11T06:57:37.134Z,98.79
2023-03-11T06:58:36.797Z,97.85
2023-03-11T06:59:37.702Z,96.70
2023-03-11T07:00:37.933Z,97.22
2023-03-11T07:01:38.871Z,97.43
2023-03-11T07:02:37.686Z,97.32
2023-03-11T07:03:38.289Z,96.59
2023-03-11T07:04:39.912Z,95.86
2023-03-11T07:05:40.342Z,96.38
2023-03-11T07:06:38.786Z,97.01
2023-03-11T07:07:38.530Z,96.70
2023-03-11T07:08:39.830Z,96.70
2023-03-11T07:09:39.017Z,96.91
2023-03-11T07:10:39.468Z,96.49
2023-03-11T07:11:40.586Z,96.97
2023-03-11T07:12:39.459Z,97.49
2023-03-11T07:13:39.576Z,96.44
2023-03-11T07:14:39.421Z,96.76
2023-03-11T07:15:39.460Z,96.23
2023-03-11T07:16:43.782Z,96.76
2023-03-11T07:17:41.084Z,96.76
2023-03-11T07:18:41.836Z,96.97
2023-03-11T07:19:40.958Z,96.97
2023-03-11T07:20:41.719Z,96.44
2023-03-11T07:21:41.519Z,95.61
2023-03-11T07:22:41.538Z,95.23
2023-03-11T07:23:41.730Z,96.07
2023-03-11T07:24:42.551Z,96.03
2023-03-11T07:25:42.899Z,96.34
2023-03-11T07:26:44.580Z,96.44
2023-03-11T07:27:43.109Z,96.34
2023-03-11T07:28:42.986Z,96.86
2023-03-11T07:29:43.361Z,96.97
2023-03-11T07:30:44.080Z,96.13
2023-03-11T07:31:44.568Z,96.34
2023-03-11T07:32:45.585Z,96.66
2023-03-11T07:33:45.258Z,96.44
2023-03-11T07:34:44.209Z,94.25
2023-03-11T07:35:47.109Z,93.63
2023-03-11T07:36:45.619Z,92.73
2023-03-11T07:37:44.888Z,93.63
2023-03-11T07:38:45.927Z,93.84
2023-03-11T07:39:45.080Z,94.78
2023-03-11T07:40:47.333Z,95.40
2023-03-11T07:41:47.978Z,94.15
2023-03-11T07:42:47.271Z,94.35
2023-03-11T07:43:46.722Z,95.19
2023-03-11T07:44:46.470Z,95.88
2023-03-11T07:45:46.668Z,95.67
2023-03-11T07:46:48.880Z,94.88
2023-03-11T07:47:47.779Z,94.88
2023-03-11T07:48:47.468Z,94.04
2023-03-11T07:49:47.496Z,94.67
2023-03-11T07:50:47.889Z,93.63
2023-03-11T07:51:48.700Z,94.25
2023-03-11T07:52:48.289Z,94.98
2023-03-11T07:53:49.757Z,94.46
2023-03-11T07:54:49.154Z,92.58
2023-03-11T07:55:50.283Z,93.21
2023-03-11T07:56:51.591Z,94.00
2023-03-11T07:57:49.917Z,93.21
2023-03-11T07:58:50.381Z,93.73
2023-03-11T07:59:50.878Z,94.31
2023-03-11T08:00:50.845Z,94.42
2023-03-11T08:01:51.236Z,94.52
2023-03-11T08:02:51.179Z,94.84
2023-03-11T08:03:51.952Z,95.04
2023-03-11T08:04:51.767Z,95.10
2023-03-11T08:05:56.226Z,94.69
2023-03-11T08:06:54.013Z,93.65
2023-03-11T08:07:54.031Z,93.75
2023-03-11T08:08:52.830Z,93.27
2023-03-11T08:09:53.115Z,93.59
2023-03-11T08:10:53.791Z,92.96
2023-03-11T08:11:53.548Z,92.12
2023-03-11T08:12:53.856Z,92.65
2023-03-11T08:13:54.684Z,92.44
2023-03-11T08:14:54.776Z,92.85
2023-03-11T08:15:54.605Z,93.90
2023-03-11T08:16:54.820Z,92.54
2023-03-11T08:17:54.790Z,92.75
2023-03-11T08:18:56.804Z,93.16
2023-03-11T08:19:56.403Z,93.37
2023-03-11T08:20:57.281Z,93.59
2023-03-11T08:21:55.795Z,92.85
2023-03-11T08:22:58.414Z,93.79
2023-03-11T08:23:57.259Z,93.79
2023-03-11T08:24:56.725Z,94.10
2023-03-11T08:27:08.755Z,94.27
2023-03-11T08:27:57.184Z,94.37
2023-03-11T08:28:57.537Z,94.58
2023-03-11T08:29:58.094Z,94.37
2023-03-11T08:30:57.825Z,93.96
2023-03-11T08:31:58.299Z,94.69
2023-03-11T08:32:59.654Z,94.12
2023-03-11T08:33:59.649Z,93.29
2023-03-11T08:34:59.208Z,93.40
2023-03-11T08:37:02.051Z,92.87
2023-03-11T08:37:59.933Z,92.56
2023-03-11T08:39:00.354Z,92.10
2023-03-11T08:39:59.484Z,92.31
2023-03-11T08:40:59.524Z,91.58
2023-03-11T08:42:00.147Z,89.50
2023-03-11T08:43:00.292Z,90.44
2023-03-11T08:44:00.589Z,90.54
2023-03-11T08:45:00.945Z,91.58
2023-03-11T08:46:01.236Z,91.53
2023-03-11T08:47:01.544Z,91.75
2023-03-11T08:48:01.624Z,91.43
2023-03-11T08:49:01.666Z,89.35
2023-03-11T08:50:02.047Z,89.45
2023-03-11T08:51:01.321Z,90.91
2023-03-11T08:52:01.686Z,91.28
2023-03-11T08:53:03.996Z,90.04
2023-03-11T08:54:03.343Z,89.27
2023-03-11T08:55:03.258Z,88.02
2023-03-11T08:56:05.866Z,86.71
2023-03-11T08:57:04.039Z,86.29
2023-03-11T08:58:04.340Z,87.60
2023-03-11T08:59:04.989Z,87.40
2023-03-11T09:00:05.743Z,86.40
2023-03-11T09:01:05.336Z,86.81
2023-03-11T09:02:04.766Z,86.60
2023-03-11T09:03:05.561Z,86.71
2023-03-11T09:04:05.670Z,87.96
2023-03-11T09:05:07.553Z,89.31
2023-03-11T09:06:09.445Z,89.10
2023-03-11T09:07:06.147Z,88.48
2023-03-11T09:08:08.392Z,88.89
2023-03-11T09:09:09.422Z,88.48
2023-03-11T09:10:07.492Z,87.43
2023-03-11T09:11:07.692Z,87.96
2023-03-11T09:12:07.820Z,88.58
2023-03-11T09:13:07.934Z,88.79
2023-03-11T09:14:08.297Z,89.89
2023-03-11T09:15:08.302Z,90.10
2023-03-11T09:16:08.749Z,89.69
2023-03-11T09:17:09.270Z,89.58
2023-03-11T09:18:09.095Z,88.33
2023-03-11T09:19:09.440Z,88.33
2023-03-11T09:20:09.642Z,87.40
2023-03-11T09:21:10.111Z,87.12
2023-03-11T09:22:09.474Z,88.68
2023-03-11T09:23:09.796Z,89.00
2023-03-11T09:24:10.418Z,89.73
2023-03-11T09:25:10.594Z,89.94
2023-03-11T09:26:09.961Z,90.56
2023-03-11T09:27:11.396Z,89.10
2023-03-11T09:28:11.722Z,89.62
2023-03-11T09:29:11.343Z,89.58
2023-03-11T09:30:11.188Z,88.23
2023-03-11T09:31:11.671Z,88.50
2023-03-11T09:32:12.375Z,88.81
2023-03-11T09:33:13.758Z,89.23
2023-03-11T09:34:14.460Z,88.19
2023-03-11T09:35:13.918Z,88.15
2023-03-11T09:36:12.518Z,88.87
2023-03-11T09:37:14.535Z,89.87
2023-03-11T09:38:12.878Z,89.98
2023-03-11T09:39:13.674Z,88.69
2023-03-11T09:40:13.279Z,85.78
2023-03-11T09:41:14.030Z,85.26
2023-03-11T09:42:13.500Z,86.41
2023-03-11T09:43:14.577Z,84.91
2023-03-11T09:44:14.382Z,83.29
2023-03-11T09:45:14.357Z,83.29
2023-03-11T09:46:15.240Z,86.19
2023-03-11T09:47:15.514Z,86.51
2023-03-11T09:48:16.817Z,86.09
2023-03-11T09:49:15.243Z,86.99
2023-03-11T09:50:15.959Z,87.09
2023-03-11T09:51:16.123Z,84.91
2023-03-11T09:52:16.707Z,83.25
2023-03-11T09:53:16.446Z,81.59
2023-03-11T09:54:16.033Z,84.77
2023-03-11T09:55:16.512Z,84.48
2023-03-11T09:56:16.890Z,83.87
2023-03-11T09:57:16.620Z,81.24
2023-03-11T09:58:17.256Z,78.21
2023-03-11T09:59:19.260Z,75.22
2023-03-11T10:00:17.769Z,74.81
2023-03-11T10:02:32.202Z,78.83
2023-03-11T10:03:17.830Z,73.57
2023-03-11T10:04:21.765Z,72.75
2023-03-11T10:05:21.470Z,70.55
2023-03-11T10:06:23.645Z,70.62
2023-03-11T10:07:20.943Z,71.48
2023-03-11T10:08:19.133Z,70.56
2023-03-11T10:09:20.842Z,69.77
2023-03-11T10:10:18.348Z,72.10
2023-03-11T10:11:18.530Z,69.43
2023-03-11T10:12:18.523Z,66.20
2023-03-11T10:13:21.722Z,68.80
2023-03-11T10:14:18.734Z,71.96
2023-03-11T10:15:20.669Z,64.79
2023-03-11T10:16:21.558Z,64.34
2023-03-11T10:17:19.073Z,68.87
2023-03-11T10:18:18.999Z,69.25
2023-03-11T10:19:25.019Z,66.37
2023-03-11T10:20:24.673Z,65.55
2023-03-11T10:21:25.232Z,67.40
2023-03-11T10:22:22.956Z,69.63
2023-03-11T10:23:19.064Z,68.33
2023-03-11T10:24:19.827Z,69.84
2023-03-11T10:25:19.708Z,67.35
2023-03-11T10:26:20.597Z,66.70
2023-03-11T10:27:19.641Z,66.97
2023-03-11T10:28:23.583Z,62.66
2023-03-11T10:29:21.666Z,66.40
2023-03-11T10:30:20.702Z,66.88
2023-03-11T10:31:20.970Z,62.96
2023-03-11T10:32:21.742Z,60.74
2023-03-11T10:33:20.923Z,58.11
2023-03-11T10:34:22.597Z,64.36
2023-03-11T10:35:27.559Z,63.76
2023-03-11T10:36:22.224Z,66.24
2023-03-11T10:37:21.458Z,69.39
2023-03-11T10:38:23.962Z,68.12
2023-03-11T10:39:21.415Z,64.54
2023-03-11T10:40:23.886Z,62.88
2023-03-11T10:41:22.975Z,68.59
2023-03-11T10:42:22.052Z,66.60
2023-03-11T10:43:22.282Z,66.87
2023-03-11T10:44:24.684Z,67.39
2023-03-11T10:45:22.386Z,66.01
2023-03-11T10:46:26.711Z,66.63
2023-03-11T10:47:26.497Z,69.07
2023-03-11T10:48:23.363Z,68.21
2023-03-11T10:49:24.742Z,66.56
2023-03-11T10:50:23.709Z,64.32
2023-03-11T10:51:25.704Z,65.95
2023-03-11T10:52:23.524Z,66.12
2023-03-11T10:53:27.987Z,68.43
2023-03-11T10:54:23.683Z,67.03
2023-03-11T10:55:25.172Z,64.29
2023-03-11T10:56:23.934Z,62.83
2023-03-11T10:57:23.881Z,61.87
2023-03-11T10:58:26.232Z,59.50
2023-03-11T10:59:25.556Z,59.96
2023-03-11T11:00:24.572Z,59.68
2023-03-11T11:01:25.100Z,62.41
2023-03-11T11:02:24.759Z,65.92
2023-03-11T11:03:24.569Z,61.41
2023-03-11T11:04:25.767Z,65.15
2023-03-11T11:05:25.191Z,61.68
2023-03-11T11:07:24.766Z,68.34
2023-03-11T11:08:26.196Z,66.69
2023-03-11T11:09:26.749Z,65.31
2023-03-11T11:10:25.336Z,66.38
2023-03-11T11:11:25.777Z,64.59
2023-03-11T11:12:25.133Z,63.64
2023-03-11T11:13:26.355Z,68.24
2023-03-11T11:14:25.794Z,63.45
2023-03-11T11:15:25.800Z,62.18
2023-03-11T11:16:27.397Z,61.28
2023-03-11T11:17:26.448Z,60.02
2023-03-11T11:18:28.394Z,62.77
2023-03-11T11:19:26.737Z,63.22
2023-03-11T11:20:27.995Z,59.77
2023-03-11T11:21:27.389Z,59.52
2023-03-11T11:22:26.888Z,59.56
2023-03-11T11:23:26.889Z,56.71
2023-03-11T11:24:27.212Z,53.10
2023-03-11T11:25:28.572Z,55.38
2023-03-11T11:26:28.170Z,54.69
2023-03-11T11:27:29.696Z,56.77
2023-03-11T11:28:28.516Z,56.02
2023-03-11T11:29:28.999Z,55.59
2023-03-11T11:30:28.228Z,57.03
2023-03-11T11:31:28.586Z,57.62
2023-03-11T11:32:28.805Z,58.04
2023-03-11T11:33:29.538Z,61.40
2023-03-11T11:34:29.789Z,60.37
2023-03-11T11:35:29.551Z,61.22
2023-03-11T11:36:34.574Z,63.22
2023-03-11T11:37:30.205Z,64.87
2023-03-11T11:38:32.669Z,66.12
2023-03-11T11:39:30.241Z,66.66
2023-03-11T11:40:30.622Z,65.87
2023-03-11T11:41:30.778Z,67.52
2023-03-11T11:42:31.687Z,67.00
2023-03-11T11:43:32.614Z,68.56
2023-03-11T11:44:30.549Z,69.15
2023-03-11T11:45:31.901Z,69.12
2023-03-11T11:46:32.665Z,64.90
2023-03-11T11:47:31.985Z,67.67
2023-03-11T11:48:33.324Z,68.30
2023-03-11T11:49:32.497Z,66.21
2023-03-11T11:50:32.562Z,63.85
2023-03-11T11:51:33.486Z,60.19
2023-03-11T11:52:33.668Z,59.73
2023-03-11T11:53:33.939Z,55.30
2023-03-11T11:54:33.552Z,55.21
2023-03-11T11:55:34.490Z,56.62
2023-03-11T11:56:33.835Z,56.21
2023-03-11T11:57:33.763Z,55.62
2023-03-11T11:58:34.613Z,57.03
2023-03-11T11:59:34.248Z,58.63
2023-03-11T12:00:34.502Z,58.99
2023-03-11T12:01:36.826Z,61.91
2023-03-11T12:02:36.670Z,62.19
2023-03-11T12:03:34.719Z,63.09
2023-03-11T12:04:34.997Z,62.88
2023-03-11T12:05:35.820Z,59.84
2023-03-11T12:06:37.704Z,59.17
2023-03-11T12:07:35.899Z,57.39
2023-03-11T12:08:36.525Z,56.64
2023-03-11T12:10:54.227Z,55.69
2023-03-11T12:12:52.925Z,54.82
2023-03-11T12:15:50.010Z,60.68
2023-03-11T12:16:38.225Z,57.16
2023-03-11T12:17:38.486Z,58.50
2023-03-11T12:18:38.093Z,57.54
2023-03-11T12:19:38.442Z,54.56
2023-03-11T12:20:38.982Z,54.36
2023-03-11T12:21:40.244Z,55.41
2023-03-11T12:22:38.807Z,57.52
2023-03-11T12:23:41.685Z,55.69
2023-03-11T12:24:39.617Z,58.68
2023-03-11T12:25:43.756Z,55.46
2023-03-11T12:26:41.614Z,56.57
2023-03-11T12:27:40.972Z,56.95
2023-03-11T12:28:41.188Z,53.92
2023-03-11T12:29:39.747Z,54.13
2023-03-11T12:30:41.076Z,53.94
2023-03-11T12:31:41.150Z,54.00
2023-03-11T12:32:41.563Z,55.77
2023-03-11T12:33:42.297Z,56.52
2023-03-11T12:34:40.805Z,56.77
2023-03-11T12:35:40.697Z,57.59
2023-03-11T12:36:42.903Z,57.08
2023-03-11T12:37:41.416Z,57.98
2023-03-11T12:38:41.656Z,54.97
2023-03-11T12:39:44.008Z,56.02
2023-03-11T12:40:41.747Z,54.61
2023-03-11T12:41:41.643Z,55.00
2023-03-11T12:42:41.782Z,57.21
2023-03-11T12:43:41.838Z,59.30
2023-03-11T12:44:41.732Z,58.33
2023-03-11T12:45:55.224Z,59.67
2023-03-11T12:46:41.785Z,62.63
2023-03-11T12:47:43.937Z,61.91
2023-03-11T12:48:42.061Z,62.29
2023-03-11T12:49:42.378Z,58.58
2023-03-11T12:50:43.387Z,57.81
2023-03-11T12:51:47.967Z,58.97
2023-03-11T12:52:42.081Z,60.16
2023-03-11T12:53:44.884Z,62.26
2023-03-11T12:54:43.468Z,62.08
2023-03-11T12:55:46.411Z,62.49
2023-03-11T12:56:44.181Z,62.60
2023-03-11T12:57:43.425Z,63.53
2023-03-11T12:58:43.992Z,62.94
2023-03-11T12:59:43.320Z,63.46
2023-03-11T13:00:45.216Z,63.87
2023-03-11T13:01:44.005Z,62.01
2023-03-11T13:02:44.867Z,60.42
2023-03-11T13:03:46.114Z,60.46
2023-03-11T13:04:47.474Z,62.11
2023-03-11T13:05:49.629Z,61.07
2023-03-11T13:06:52.238Z,62.42
2023-03-11T13:07:47.024Z,62.14
2023-03-11T13:08:46.285Z,62.55
2023-03-11T13:09:46.974Z,61.93
2023-03-11T13:10:46.280Z,62.21
2023-03-11T13:11:47.493Z,59.70
2023-03-11T13:12:46.897Z,58.77
2023-03-11T13:13:47.562Z,59.16
2023-03-11T13:14:47.388Z,59.95
2023-03-11T13:15:47.702Z,58.79
2023-03-11T13:16:48.871Z,57.24
2023-03-11T13:17:48.757Z,57.97
2023-03-11T13:18:48.844Z,58.72
2023-03-11T13:19:49.174Z,58.51
2023-03-11T13:20:49.445Z,59.13
2023-03-11T13:21:49.793Z,60.09
2023-03-11T13:22:49.893Z,59.78
2023-03-11T13:23:53.756Z,61.54
2023-03-11T13:24:51.385Z,62.37
2023-03-11T13:25:50.660Z,63.43
2023-03-11T13:26:52.663Z,62.18
2023-03-11T13:28:01.260Z,61.77
2023-03-11T13:28:52.550Z,61.87
2023-03-11T13:29:53.319Z,61.05
2023-03-11T13:30:56.276Z,60.09
2023-03-11T13:31:52.043Z,60.96
2023-03-11T13:32:51.582Z,57.32
2023-03-11T13:33:52.947Z,56.90
2023-03-11T13:34:52.263Z,56.70
2023-03-11T13:35:56.660Z,56.49
2023-03-11T13:36:57.112Z,58.66
2023-03-11T13:37:53.408Z,55.77
2023-03-11T13:38:53.042Z,56.60
2023-03-11T13:39:54.164Z,55.43
2023-03-11T13:40:52.798Z,54.82
2023-03-11T13:41:52.723Z,55.33
2023-03-11T13:42:53.029Z,54.84
2023-03-11T13:43:53.411Z,54.84
2023-03-11T13:44:55.752Z,55.49
2023-03-11T13:45:55.577Z,54.97
2023-03-11T13:46:54.441Z,55.36
2023-03-11T13:47:54.719Z,54.84
2023-03-11T13:48:55.195Z,54.74
2023-03-11T13:49:55.062Z,55.28
2023-03-11T13:50:57.040Z,55.28
2023-03-11T13:51:55.920Z,54.84
2023-03-11T13:52:56.301Z,54.55
2023-03-11T13:53:57.057Z,54.97
2023-03-11T13:54:58.070Z,56.54
2023-03-11T13:55:56.944Z,57.34
2023-03-11T13:56:59.242Z,56.62
2023-03-11T13:57:57.761Z,55.90
2023-03-11T13:58:58.462Z,55.72
2023-03-11T13:59:57.938Z,56.44
2023-03-11T14:00:58.305Z,57.89
2023-03-11T14:01:58.761Z,55.41
2023-03-11T14:03:01.045Z,55.93
2023-03-11T14:04:00.315Z,54.27
2023-03-11T14:05:02.542Z,55.07
2023-03-11T14:06:02.080Z,55.10
2023-03-11T14:07:00.349Z,54.89
2023-03-11T14:08:01.953Z,53.94
2023-03-11T14:09:00.415Z,54.38
2023-03-11T14:10:00.995Z,55.82
2023-03-11T14:11:01.438Z,58.72
2023-03-11T14:12:01.372Z,54.68
2023-03-11T14:13:01.792Z,54.99
2023-03-11T14:14:02.018Z,55.72
2023-03-11T14:15:01.923Z,55.20
2023-03-11T14:16:02.294Z,55.10
2023-03-11T14:17:03.608Z,56.54
2023-03-11T14:18:04.171Z,55.62
2023-03-11T14:19:04.035Z,56.77
2023-03-11T14:20:05.229Z,58.84
2023-03-11T14:21:03.757Z,58.36
2023-03-11T14:22:03.694Z,58.56
2023-03-11T14:23:04.069Z,58.98
2023-03-11T14:24:04.036Z,58.87
2023-03-11T14:25:04.569Z,59.13
2023-03-11T14:26:05.253Z,57.92